Time;durP1;ratioP1;P1;durP2;ratioP2;P2;SDS_P1;SDS_P2;PMS_P1;PMS_P2;Temp;Humidity;BMP_temperature;BMP_pressure;BME280_temperature;BME280_humidity;BME280_pressure;Samples;Min_cycle;Max_cycle;Signal;HPM_P1;HPM_P2
2023/05/03 00:00:26;;;;;;;;;;;;;;;8.41;65.27;99946.69;5069489;28;19923;-81
2023/05/03 00:02:52;;;;;;;;;;;;;;;8.43;65.04;99949.97;5075138;28;20014;-81
2023/05/03 00:05:18;;;;;;;;;;;;;;;8.42;65.11;99943.03;5072766;28;19922;-81
2023/05/03 00:07:43;;;;;;;;;;;;;;;8.41;64.55;99943.25;5071622;28;20003;-82
2023/05/03 00:10:11;;;;;;;;;;;;;;;8.34;64.22;99942.44;5055348;28;19975;-82
2023/05/03 00:12:37;;;;;;;;;;;;;;;8.06;66.04;99935.47;5076114;28;19938;-82
2023/05/03 00:15:08;;;;;;;;;;;;;;;8.22;65.49;99931.56;5074147;28;19929;-82
2023/05/03 00:17:34;;;;;;;;;;;;;;;8.19;65.16;99935.44;5066515;28;19943;-83
2023/05/03 00:20:00;;;;;;;;;;;;;;;8.20;65.60;99928.28;5072098;28;19917;-83
2023/05/03 00:22:26;;;;;;;;;;;;;;;8.18;65.10;99935.66;5048350;28;19916;-82
2023/05/03 00:24:51;;;;;;;;;;;;;;;8.16;65.50;99935.06;5052426;28;19920;-82
2023/05/03 00:27:17;;;;;;;;;;;;;;;8.08;65.74;99935.28;5052851;28;20631;-82
2023/05/03 00:29:42;;;;;;;;;;;;;;;8.03;65.35;99937.72;5034537;28;20010;-82
2023/05/03 00:32:09;;;;;;;;;;;;;;;8.00;66.07;99944.25;5053471;28;19942;-81
2023/05/03 00:34:35;;;;;;;;;;;;;;;7.96;65.03;99947.53;5055175;28;19975;-81
2023/05/03 00:37:00;;;;;;;;;;;;;;;7.94;65.52;99950.41;5053323;28;20415;-81
2023/05/03 00:39:28;;;;;;;;;;;;;;;7.88;65.79;99945.91;5071819;28;19952;-81
2023/05/03 00:41:55;;;;;;;;;;;;;;;7.81;65.53;99953.06;5055247;28;19952;-81
2023/05/03 00:44:20;;;;;;;;;;;;;;;7.82;65.42;99943.25;5068543;28;19971;-81
2023/05/03 00:46:45;;;;;;;;;;;;;;;7.84;65.77;99947.31;5053409;28;19928;-81
2023/05/03 00:49:13;;;;;;;;;;;;;;;7.77;65.62;99954.50;5051994;28;19921;-81
2023/05/03 00:51:39;;;;;;;;;;;;;;;7.81;66.14;99955.72;5052923;28;19987;-81
2023/05/03 00:54:04;;;;;;;;;;;;;;;7.80;65.80;99947.97;5051483;28;20019;-80
2023/05/03 00:56:30;;;;;;;;;;;;;;;7.76;65.43;99952.84;5072601;28;20057;-80
2023/05/03 00:58:55;;;;;;;;;;;;;;;7.70;65.77;99955.50;5072967;28;19984;-81
2023/05/03 01:01:21;;;;;;;;;;;;;;;7.64;66.03;99949.16;5074219;28;19920;-80
2023/05/03 01:03:46;;;;;;;;;;;;;;;7.60;65.87;99949.75;5034498;28;19920;-81
2023/05/03 01:06:18;;;;;;;;;;;;;;;7.62;66.18;99953.03;5048035;28;20014;-80
2023/05/03 01:08:49;;;;;;;;;;;;;;;7.62;66.10;99953.88;5049577;28;19917;-81
2023/05/03 01:11:26;;;;;;;;;;;;;;;7.53;65.66;99945.25;5066838;28;19924;-80
2023/05/03 01:14:18;;;;;;;;;;;;;;;7.55;65.97;99951.19;5062393;28;19927;-81
2023/05/03 01:16:48;;;;;;;;;;;;;;;7.52;65.54;99948.94;5067405;28;19917;-81
2023/05/03 01:19:26;;;;;;;;;;;;;;;7.50;66.52;99953.63;5066083;28;20288;-81
2023/05/03 01:21:56;;;;;;;;;;;;;;;7.41;65.69;99944.22;5046893;28;19931;-81
2023/05/03 01:24:25;;;;;;;;;;;;;;;7.45;66.08;99948.09;5067173;28;19975;-81
2023/05/03 01:26:50;;;;;;;;;;;;;;;7.35;66.00;99947.69;5064448;28;19917;-81
2023/05/03 01:29:15;;;;;;;;;;;;;;;7.31;65.85;99945.63;5043708;28;19938;-82
2023/05/03 01:31:49;;;;;;;;;;;;;;;7.30;65.94;99950.09;5032563;28;20011;-82
2023/05/03 01:34:17;;;;;;;;;;;;;;;7.25;66.00;99951.72;5045460;28;19916;-82
2023/05/03 01:36:43;;;;;;;;;;;;;;;7.26;65.80;99950.69;5052471;28;19930;-81
2023/05/03 01:39:11;;;;;;;;;;;;;;;7.22;65.83;99947.63;5033194;28;20022;-81
2023/05/03 01:41:39;;;;;;;;;;;;;;;7.21;65.94;99948.63;5052791;28;19917;-81
2023/05/03 01:44:05;;;;;;;;;;;;;;;7.15;67.04;99949.44;5049706;28;19932;-81
2023/05/03 01:46:30;;;;;;;;;;;;;;;7.21;66.85;99959.25;5034814;28;20052;-81
2023/05/03 01:48:55;;;;;;;;;;;;;;;7.11;66.12;99961.47;5052345;28;20392;-82
2023/05/03 01:51:21;;;;;;;;;;;;;;;7.10;66.10;99964.34;5033756;28;19925;-81
2023/05/03 01:53:46;;;;;;;;;;;;;;;7.06;66.51;99960.44;5050069;28;20376;-81
2023/05/03 01:56:11;;;;;;;;;;;;;;;7.06;66.66;99958.59;5050571;28;19964;-81
2023/05/03 01:58:36;;;;;;;;;;;;;;;7.02;66.36;99961.84;5072109;28;19925;-81
2023/05/03 02:01:03;;;;;;;;;;;;;;;7.02;66.74;99959.19;5050235;28;20372;-81
2023/05/03 02:03:28;;;;;;;;;;;;;;;6.93;67.03;99963.84;5070941;28;19920;-81
2023/05/03 02:05:53;;;;;;;;;;;;;;;6.90;66.82;99961.59;5055883;28;19920;-81
2023/05/03 02:08:19;;;;;;;;;;;;;;;6.89;66.81;99969.75;5056618;28;19929;-81
2023/05/03 02:10:44;;;;;;;;;;;;;;;6.87;67.20;99967.31;5067005;28;19959;-81
2023/05/03 02:13:09;;;;;;;;;;;;;;;6.85;66.94;99963.19;5054290;28;19921;-81
2023/05/03 02:15:35;;;;;;;;;;;;;;;6.88;66.68;99958.31;5038961;28;20351;-81
2023/05/03 02:18:01;;;;;;;;;;;;;;;6.82;66.18;99957.28;5046285;28;19981;-81
2023/05/03 02:20:26;;;;;;;;;;;;;;;6.75;66.26;99955.59;5048402;28;20458;-81
2023/05/03 02:22:52;;;;;;;;;;;;;;;6.79;66.95;99959.50;5068334;28;19921;-81
2023/05/03 02:25:17;;;;;;;;;;;;;;;6.90;66.37;99966.91;5052001;28;19916;-81
2023/05/03 02:27:43;;;;;;;;;;;;;;;6.78;66.50;99963.16;5066851;28;19924;-81
2023/05/03 02:30:10;;;;;;;;;;;;;;;6.79;66.23;99962.16;5037603;28;20430;-81
2023/05/03 02:32:36;;;;;;;;;;;;;;;6.74;66.14;99969.88;5036524;28;20320;-82
2023/05/03 02:35:02;;;;;;;;;;;;;;;6.65;66.51;99968.41;5067988;28;19917;-83
2023/05/03 02:37:27;;;;;;;;;;;;;;;6.64;67.09;99969.44;5060038;28;19928;-82
2023/05/03 02:39:52;;;;;;;;;;;;;;;6.63;66.72;99970.44;5060266;28;19920;-82
2023/05/03 02:42:18;;;;;;;;;;;;;;;6.60;66.76;99981.44;5041174;28;19978;-82
2023/05/03 02:44:45;;;;;;;;;;;;;;;6.49;67.25;99976.66;5061542;28;19935;-81
2023/05/03 02:47:10;;;;;;;;;;;;;;;6.57;66.90;99987.13;5069768;28;19928;-81
2023/05/03 02:49:35;;;;;;;;;;;;;;;6.52;66.40;99974.47;5059843;28;19936;-80
2023/05/03 02:52:00;;;;;;;;;;;;;;;6.52;66.52;99973.63;5082245;28;19928;-81
2023/05/03 02:54:26;;;;;;;;;;;;;;;6.49;66.76;99977.50;5064698;23;19928;-79
2023/05/03 02:56:51;;;;;;;;;;;;;;;6.39;66.90;99971.72;5068551;28;19942;-78
2023/05/03 02:59:16;;;;;;;;;;;;;;;6.39;66.64;99986.81;5068734;28;19920;-78
2023/05/03 03:01:42;;;;;;;;;;;;;;;6.34;66.51;99989.22;5059458;28;19927;-78
2023/05/03 03:04:08;;;;;;;;;;;;;;;6.35;66.68;99990.84;5080255;28;19928;-79
2023/05/03 03:06:33;;;;;;;;;;;;;;;6.34;66.71;99990.03;5065648;28;20398;-78
2023/05/03 03:08:58;;;;;;;;;;;;;;;6.30;67.17;99982.66;5064060;28;20019;-78
2023/05/03 03:11:24;;;;;;;;;;;;;;;6.25;66.64;99998.31;5081202;28;20390;-78
2023/05/03 03:13:49;;;;;;;;;;;;;;;6.25;67.38;99983.22;5064914;28;19928;-78
2023/05/03 03:16:14;;;;;;;;;;;;;;;6.24;66.71;99996.69;5044938;28;19924;-78
2023/05/03 03:18:40;;;;;;;;;;;;;;;6.15;67.41;99993.34;5080602;28;20291;-78
2023/05/03 03:21:05;;;;;;;;;;;;;;;6.17;67.30;99990.50;5045801;28;20344;-78
2023/05/03 03:23:30;;;;;;;;;;;;;;;6.14;67.23;99997.00;5060348;28;19935;-78
2023/05/03 03:25:55;;;;;;;;;;;;;;;6.16;66.44;99994.19;5061930;28;20581;-78
2023/05/03 03:28:21;;;;;;;;;;;;;;;6.09;66.63;100003.91;5064477;28;20291;-78
2023/05/03 03:30:46;;;;;;;;;;;;;;;6.15;67.18;99997.84;5045670;28;19920;-78
2023/05/03 03:33:11;;;;;;;;;;;;;;;6.13;67.53;99999.84;5082316;28;19916;-78
2023/05/03 03:35:37;;;;;;;;;;;;;;;6.07;67.38;99998.81;5083118;28;19921;-78
2023/05/03 03:38:02;;;;;;;;;;;;;;;6.08;66.96;100000.44;5081993;28;20339;-78
2023/05/03 03:40:27;;;;;;;;;;;;;;;6.02;67.55;99999.38;5067128;28;20003;-78
2023/05/03 03:42:52;;;;;;;;;;;;;;;6.01;67.28;100007.50;5065498;28;19924;-78
2023/05/03 03:45:18;;;;;;;;;;;;;;;6.03;66.59;100003.66;5067580;28;19924;-78
2023/05/03 03:47:43;;;;;;;;;;;;;;;6.00;67.07;100003.22;5053052;28;19982;-78
2023/05/03 03:50:08;;;;;;;;;;;;;;;6.01;67.13;100008.31;5045975;28;19927;-78
2023/05/03 03:52:34;;;;;;;;;;;;;;;6.02;67.29;100003.84;5044330;28;19924;-78
2023/05/03 03:54:59;;;;;;;;;;;;;;;6.02;66.73;100006.50;5065510;28;19966;-78
2023/05/03 03:57:28;;;;;;;;;;;;;;;5.94;67.25;100004.78;5060217;28;20381;-78
2023/05/03 03:59:54;;;;;;;;;;;;;;;5.93;67.01;100013.75;5064933;28;19955;-78
2023/05/03 04:02:20;;;;;;;;;;;;;;;5.92;67.73;100012.09;5051218;28;19967;-78
2023/05/03 04:04:45;;;;;;;;;;;;;;;5.91;67.18;100013.13;5066251;28;20289;-78
2023/05/03 04:07:10;;;;;;;;;;;;;;;5.84;67.76;100017.53;5066259;28;19930;-78
2023/05/03 04:09:36;;;;;;;;;;;;;;;5.95;67.42;100013.56;5045932;28;19979;-78
2023/05/03 04:12:01;;;;;;;;;;;;;;;5.92;67.04;100005.97;5047730;28;19926;-79
2023/05/03 04:14:26;;;;;;;;;;;;;;;5.89;67.04;100012.50;5057793;28;19964;-78
2023/05/03 04:16:52;;;;;;;;;;;;;;;5.87;67.41;100016.34;5040456;28;19925;-78
2023/05/03 04:19:17;;;;;;;;;;;;;;;5.87;67.70;100017.19;5043123;28;20031;-78
2023/05/03 04:21:43;;;;;;;;;;;;;;;5.95;67.98;100014.38;5060340;28;20196;-78
2023/05/03 04:24:08;;;;;;;;;;;;;;;5.95;67.76;100014.38;5044305;28;19999;-78
2023/05/03 04:26:34;;;;;;;;;;;;;;;6.07;67.70;100005.94;5059198;28;19924;-79
2023/05/03 04:28:59;;;;;;;;;;;;;;;6.07;67.68;100008.59;5061902;28;19921;-78
2023/05/03 04:31:25;;;;;;;;;;;;;;;6.11;67.42;100008.00;5040388;28;19928;-79
2023/05/03 04:33:50;;;;;;;;;;;;;;;6.23;67.20;100003.00;5046450;28;19928;-78
2023/05/03 04:36:16;;;;;;;;;;;;;;;6.24;68.03;100009.94;5042218;28;20017;-79
2023/05/03 04:38:42;;;;;;;;;;;;;;;6.27;67.85;100001.63;5042041;28;20053;-78
2023/05/03 04:41:07;;;;;;;;;;;;;;;6.26;68.05;100006.09;5043264;28;20402;-78
2023/05/03 04:43:33;;;;;;;;;;;;;;;6.27;68.21;100013.00;5061067;28;19928;-78
2023/05/03 04:45:58;;;;;;;;;;;;;;;6.29;67.92;100012.84;5058805;28;19970;-78
2023/05/03 04:48:24;;;;;;;;;;;;;;;6.42;67.83;100007.66;5057317;28;19930;-78
2023/05/03 04:50:50;;;;;;;;;;;;;;;6.43;67.97;100007.44;5060143;28;19936;-78
2023/05/03 04:53:16;;;;;;;;;;;;;;;6.51;67.84;100019.75;5036609;28;19931;-78
2023/05/03 04:55:41;;;;;;;;;;;;;;;6.55;67.71;100008.53;5045873;28;19932;-78
2023/05/03 04:58:07;;;;;;;;;;;;;;;6.58;68.20;100021.41;5046218;28;20296;-78
2023/05/03 05:00:32;;;;;;;;;;;;;;;6.58;68.57;100024.06;5062083;28;19924;-78
2023/05/03 05:02:58;;;;;;;;;;;;;;;6.66;68.12;100028.41;5068408;28;19921;-78
2023/05/03 05:05:23;;;;;;;;;;;;;;;6.73;68.48;100031.91;5068344;28;19927;-78
2023/05/03 05:07:48;;;;;;;;;;;;;;;6.72;68.42;100040.91;5067545;28;19968;-78
2023/05/03 05:10:13;;;;;;;;;;;;;;;6.86;67.68;100039.94;5070459;28;20426;-78
2023/05/03 05:12:39;;;;;;;;;;;;;;;6.99;67.54;100039.22;5069069;28;20285;-78
2023/05/03 05:15:04;;;;;;;;;;;;;;;7.09;67.75;100043.16;5054587;28;19927;-78
2023/05/03 05:17:29;;;;;;;;;;;;;;;7.22;67.41;100039.75;5052187;28;19971;-79
2023/05/03 05:19:55;;;;;;;;;;;;;;;7.22;67.21;100048.53;5072111;28;20380;-78
2023/05/03 05:22:20;;;;;;;;;;;;;;;7.29;66.98;100049.38;5073728;28;19925;-78
2023/05/03 05:24:45;;;;;;;;;;;;;;;6.33;70.08;100049.38;5056227;28;19930;-78
2023/05/03 05:27:11;;;;;;;;;;;;;;;5.86;71.82;100057.91;5055840;28;19921;-78
2023/05/03 05:29:36;;;;;;;;;;;;;;;5.90;73.76;100056.53;5055926;28;19920;-78
2023/05/03 05:32:04;;;;;;;;;;;;;;;5.57;74.64;100042.06;5055420;28;19942;-78
2023/05/03 05:34:29;;;;;;;;;;;;;;;6.55;71.64;100035.06;5056751;28;19920;-78
2023/05/03 05:36:55;;;;;;;;;;;;;;;4.73;76.29;100041.81;5053689;28;20341;-78
2023/05/03 05:39:22;;;;;;;;;;;;;;;4.95;77.22;100052.31;5069316;28;19917;-78
2023/05/03 05:41:47;;;;;;;;;;;;;;;6.42;72.22;100050.88;5068985;28;19929;-78
2023/05/03 05:44:12;;;;;;;;;;;;;;;6.85;69.41;100040.16;5067480;28;20206;-78
2023/05/03 05:46:37;;;;;;;;;;;;;;;7.04;69.24;100042.91;5073806;28;19921;-78
2023/05/03 05:49:02;;;;;;;;;;;;;;;7.25;68.80;100042.81;5072664;28;19974;-78
2023/05/03 05:51:29;;;;;;;;;;;;;;;6.72;71.64;100049.69;5054001;28;19921;-78
2023/05/03 05:53:54;;;;;;;;;;;;;;;6.61;70.82;100047.56;5070359;28;19921;-78
2023/05/03 05:56:20;;;;;;;;;;;;;;;5.75;74.21;100057.56;5046367;28;20386;-78
2023/05/03 05:58:46;;;;;;;;;;;;;;;5.46;76.64;100063.75;5073149;28;19924;-78
2023/05/03 06:01:11;;;;;;;;;;;;;;;4.74;76.93;100057.47;5074382;28;19944;-78
2023/05/03 06:03:36;;;;;;;;;;;;;;;4.60;78.51;100055.66;5055697;28;19920;-78
2023/05/03 06:06:02;;;;;;;;;;;;;;;5.08;78.00;100063.06;5054968;28;19929;-78
2023/05/03 06:08:27;;;;;;;;;;;;;;;4.84;78.17;100059.88;5075134;28;20385;-78
2023/05/03 06:10:53;;;;;;;;;;;;;;;4.78;77.92;100061.44;5055987;28;19998;-80
2023/05/03 06:13:18;;;;;;;;;;;;;;;6.18;74.85;100050.47;5071831;28;19917;-80
2023/05/03 06:15:43;;;;;;;;;;;;;;;5.33;76.92;100059.09;5071870;28;20060;-80
2023/05/03 06:18:09;;;;;;;;;;;;;;;5.59;76.43;100068.38;5070897;28;19920;-80
2023/05/03 06:20:34;;;;;;;;;;;;;;;5.52;76.61;100059.53;5049864;28;20410;-80
2023/05/03 06:23:00;;;;;;;;;;;;;;;5.53;77.54;100059.34;5037873;28;20011;-78
2023/05/03 06:25:25;;;;;;;;;;;;;;;4.95;76.52;100062.06;5053793;28;19921;-78
2023/05/03 06:27:50;;;;;;;;;;;;;;;4.79;76.74;100056.94;5069148;28;19923;-78
2023/05/03 06:30:16;;;;;;;;;;;;;;;4.84;77.17;100059.88;5054795;28;19931;-78
2023/05/03 06:32:41;;;;;;;;;;;;;;;4.82;77.91;100061.88;5053071;28;19920;-78
2023/05/03 06:35:08;;;;;;;;;;;;;;;4.96;78.09;100055.75;5070044;28;19923;-78
2023/05/03 06:37:33;;;;;;;;;;;;;;;5.33;77.34;100060.94;5051830;28;19923;-78
2023/05/03 06:39:59;;;;;;;;;;;;;;;5.44;77.05;100062.31;5071085;28;19917;-78
2023/05/03 06:42:24;;;;;;;;;;;;;;;6.17;74.96;100062.06;5071007;28;19948;-78
2023/05/03 06:44:49;;;;;;;;;;;;;;;6.19;76.19;100054.75;5050518;28;20017;-78
2023/05/03 06:47:15;;;;;;;;;;;;;;;6.82;72.38;100060.75;5045303;28;19978;-78
2023/05/03 06:49:40;;;;;;;;;;;;;;;6.60;74.09;100058.34;5051062;28;19921;-80
2023/05/03 06:52:06;;;;;;;;;;;;;;;6.29;75.28;100058.72;5054148;28;20969;-78
2023/05/03 06:54:31;;;;;;;;;;;;;;;5.73;75.11;100067.50;5054778;28;19924;-78
2023/05/03 06:56:56;;;;;;;;;;;;;;;5.51;75.26;100061.38;5071240;28;20398;-78
2023/05/03 06:59:21;;;;;;;;;;;;;;;5.82;74.51;100074.34;5046644;28;19928;-78
2023/05/03 07:01:47;;;;;;;;;;;;;;;5.90;76.13;100071.59;5049575;28;19921;-78
2023/05/03 07:04:12;;;;;;;;;;;;;;;5.98;75.10;100069.63;5044176;28;19983;-78
2023/05/03 07:06:38;;;;;;;;;;;;;;;5.97;75.35;100069.84;5058345;28;20364;-78
2023/05/03 07:09:03;;;;;;;;;;;;;;;6.24;72.51;100066.44;5058564;28;19929;-78
2023/05/03 07:11:29;;;;;;;;;;;;;;;6.22;73.76;100067.63;5052817;28;19927;-78
2023/05/03 07:13:54;;;;;;;;;;;;;;;6.07;73.73;100066.88;5052946;28;19927;-78
2023/05/03 07:16:20;;;;;;;;;;;;;;;7.00;72.49;100065.56;5069843;28;19935;-78
2023/05/03 07:18:46;;;;;;;;;;;;;;;7.57;69.86;100066.03;5061572;28;19923;-78
2023/05/03 07:21:12;;;;;;;;;;;;;;;7.08;71.53;100061.91;5068007;28;20011;-78
2023/05/03 07:23:37;;;;;;;;;;;;;;;7.20;71.28;100061.19;5066634;28;20428;-78
2023/05/03 07:26:03;;;;;;;;;;;;;;;6.44;71.10;100062.13;5072211;28;20326;-78
2023/05/03 07:28:28;;;;;;;;;;;;;;;6.48;70.25;100066.03;5056434;28;19921;-78
2023/05/03 07:30:53;;;;;;;;;;;;;;;6.41;70.84;100059.84;5072855;28;20299;-78
2023/05/03 07:33:18;;;;;;;;;;;;;;;7.62;69.79;100054.81;5054330;28;19963;-78
2023/05/03 07:35:47;;;;;;;;;;;;;;;7.43;69.59;100056.38;5070906;28;19932;-78
2023/05/03 07:38:13;;;;;;;;;;;;;;;8.09;67.52;100059.22;5071826;28;20007;-79
2023/05/03 07:40:38;;;;;;;;;;;;;;;7.72;68.05;100049.94;5048675;28;20018;-79
2023/05/03 07:43:04;;;;;;;;;;;;;;;7.17;69.19;100050.94;5065063;28;19921;-78
2023/05/03 07:45:29;;;;;;;;;;;;;;;7.25;69.63;100053.44;5065555;28;20354;-78
2023/05/03 07:47:55;;;;;;;;;;;;;;;6.41;69.81;100062.50;5068868;28;19917;-78
2023/05/03 07:50:21;;;;;;;;;;;;;;;6.25;69.78;100057.47;5073736;28;20264;-78
2023/05/03 07:52:50;;;;;;;;;;;;;;;7.14;69.90;100059.28;5055043;28;19920;-78
2023/05/03 07:55:16;;;;;;;;;;;;;;;7.26;68.55;100052.44;5062916;28;20015;-78
2023/05/03 07:57:41;;;;;;;;;;;;;;;7.17;69.47;100060.75;5061015;28;20955;-78
2023/05/03 08:00:09;;;;;;;;;;;;;;;8.16;67.24;100050.22;5029935;28;20329;-78
2023/05/03 08:02:35;;;;;;;;;;;;;;;8.65;64.45;100047.16;5064944;28;20011;-78
2023/05/03 08:05:00;;;;;;;;;;;;;;;8.79;64.39;100050.63;5043315;28;19995;-78
2023/05/03 08:07:26;;;;;;;;;;;;;;;8.21;65.79;100045.09;5048753;28;20641;-78
2023/05/03 08:09:55;;;;;;;;;;;;;;;8.07;65.34;100045.28;5051236;28;20195;-79
2023/05/03 08:12:20;;;;;;;;;;;;;;;8.15;66.96;100047.75;5050440;28;19927;-79
2023/05/03 08:14:45;;;;;;;;;;;;;;;8.20;67.43;100043.47;5072895;28;19916;-78
2023/05/03 08:17:11;;;;;;;;;;;;;;;8.70;64.71;100039.38;5065275;28;20006;-78
2023/05/03 08:19:36;;;;;;;;;;;;;;;8.58;66.26;100040.22;5041720;28;19932;-79
2023/05/03 08:22:02;;;;;;;;;;;;;;;7.63;65.58;100042.34;5050069;28;20333;-80
2023/05/03 08:24:27;;;;;;;;;;;;;;;7.50;66.05;100043.13;5043462;28;20318;-78
2023/05/03 08:26:52;;;;;;;;;;;;;;;7.72;66.03;100039.31;5043872;28;19936;-78
2023/05/03 08:29:17;;;;;;;;;;;;;;;7.40;65.18;100043.47;5046535;28;19927;-78
2023/05/03 08:31:43;;;;;;;;;;;;;;;7.95;67.70;100037.09;5064201;28;19924;-78
2023/05/03 08:34:09;;;;;;;;;;;;;;;8.59;66.02;100039.19;5063790;28;19920;-78
2023/05/03 08:36:36;;;;;;;;;;;;;;;9.18;63.67;100031.06;5022239;28;19936;-78
2023/05/03 08:39:05;;;;;;;;;;;;;;;9.38;62.98;100029.16;5010371;28;19928;-78
2023/05/03 08:41:31;;;;;;;;;;;;;;;9.36;64.20;100028.56;5026349;28;19930;-78
2023/05/03 08:43:57;;;;;;;;;;;;;;;9.00;64.02;100021.91;5050947;28;19924;-78
2023/05/03 08:46:24;;;;;;;;;;;;;;;8.32;63.68;100017.91;5064538;28;19932;-78
2023/05/03 08:48:51;;;;;;;;;;;;;;;8.77;62.89;100024.22;5061944;28;20364;-78
2023/05/03 08:51:17;;;;;;;;;;;;;;;8.50;62.39;100022.63;5055204;28;19916;-78
2023/05/03 08:53:42;;;;;;;;;;;;;;;8.26;62.46;100029.38;5062262;28;19931;-78
2023/05/03 08:56:08;;;;;;;;;;;;;;;9.07;64.37;100033.38;5045345;28;19920;-78
2023/05/03 08:58:37;;;;;;;;;;;;;;;9.36;62.05;100034.69;5047497;28;20375;-78
2023/05/03 09:01:06;;;;;;;;;;;;;;;9.80;62.43;100033.88;5047834;28;20264;-79
2023/05/03 09:03:32;;;;;;;;;;;;;;;9.82;61.29;100026.47;5064825;28;19928;-79
2023/05/03 09:06:01;;;;;;;;;;;;;;;9.96;61.25;100033.34;5063145;28;19931;-78
2023/05/03 09:08:26;;;;;;;;;;;;;;;9.75;61.12;100034.50;5050100;28;19929;-78
2023/05/03 09:10:52;;;;;;;;;;;;;;;9.88;61.37;100035.44;5049308;28;19974;-78
2023/05/03 09:13:17;;;;;;;;;;;;;;;9.70;61.39;100033.50;5065927;28;19927;-78
2023/05/03 09:15:45;;;;;;;;;;;;;;;8.83;60.69;100033.22;5067297;28;19924;-78
2023/05/03 09:18:17;;;;;;;;;;;;;;;8.60;62.14;100023.03;5045095;28;19939;-78
2023/05/03 09:20:52;;;;;;;;;;;;;;;9.48;62.55;100029.53;5042867;28;19923;-78
2023/05/03 09:23:18;;;;;;;;;;;;;;;9.61;62.00;100032.94;5046411;28;20388;-79
2023/05/03 09:25:45;;;;;;;;;;;;;;;9.74;61.16;100032.84;5064696;28;19920;-78
2023/05/03 09:28:10;;;;;;;;;;;;;;;9.78;61.93;100034.06;5045243;28;19916;-79
2023/05/03 09:30:36;;;;;;;;;;;;;;;9.37;60.98;100027.53;5029815;28;19924;-79
2023/05/03 09:33:01;;;;;;;;;;;;;;;9.98;60.54;100033.94;5047112;28;19944;-79
2023/05/03 09:35:27;;;;;;;;;;;;;;;8.70;61.57;100026.09;5049511;28;19920;-78
2023/05/03 09:37:53;;;;;;;;;;;;;;;9.82;60.57;100039.81;5044902;28;19927;-78
2023/05/03 09:40:18;;;;;;;;;;;;;;;10.05;61.02;100032.06;5062308;28;19920;-79
2023/05/03 09:43:02;;;;;;;;;;;;;;;10.18;60.71;100025.81;5057025;28;19924;-79
2023/05/03 09:45:27;;;;;;;;;;;;;;;10.06;60.67;100025.69;5058004;28;20352;-79
2023/05/03 09:47:54;;;;;;;;;;;;;;;10.31;59.98;100025.75;5043227;28;20019;-79
2023/05/03 09:50:20;;;;;;;;;;;;;;;8.89;59.76;100029.72;5064872;28;20043;-79
2023/05/03 09:52:46;;;;;;;;;;;;;;;8.75;60.98;100020.97;5039859;28;19920;-78
2023/05/03 09:55:11;;;;;;;;;;;;;;;10.33;61.18;100018.34;5058585;28;19921;-79
2023/05/03 09:57:36;;;;;;;;;;;;;;;10.27;60.32;100012.00;5042447;28;20019;-79
2023/05/03 10:00:02;;;;;;;;;;;;;;;9.74;60.85;100014.19;5045639;28;19972;-78
2023/05/03 10:02:30;;;;;;;;;;;;;;;9.59;60.72;100016.34;5058029;28;19924;-78
2023/05/03 10:04:56;;;;;;;;;;;;;;;9.68;61.31;100015.06;5069124;28;19916;-79
2023/05/03 10:07:24;;;;;;;;;;;;;;;9.88;60.83;100014.94;5042279;28;19967;-78
2023/05/03 10:09:49;;;;;;;;;;;;;;;10.70;60.04;100009.38;5066511;28;20291;-78
2023/05/03 10:12:16;;;;;;;;;;;;;;;10.55;58.81;100004.38;5042012;28;19916;-79
2023/05/03 10:14:42;;;;;;;;;;;;;;;10.31;59.84;100004.41;5051940;28;20038;-78
2023/05/03 10:17:12;;;;;;;;;;;;;;;10.31;60.14;99999.88;5066583;28;19920;-79
2023/05/03 10:19:50;;;;;;;;;;;;;;;11.11;58.17;100000.72;5049134;28;19988;-79
2023/05/03 10:22:15;;;;;;;;;;;;;;;9.72;58.66;99999.44;5064023;28;19916;-78
2023/05/03 10:24:56;;;;;;;;;;;;;;;10.67;58.34;99998.31;5066140;28;19927;-79
2023/05/03 10:27:21;;;;;;;;;;;;;;;9.82;59.02;99989.13;5069197;28;20519;-78
2023/05/03 10:29:49;;;;;;;;;;;;;;;9.55;60.49;100006.31;5049679;28;19924;-78
2023/05/03 10:32:27;;;;;;;;;;;;;;;10.59;61.56;99990.59;5070056;28;19986;-78
2023/05/03 10:35:04;;;;;;;;;;;;;;;11.37;59.29;99984.34;5069107;28;19920;-78
2023/05/03 10:37:30;;;;;;;;;;;;;;;11.71;58.03;99985.53;5070001;28;19928;-79
2023/05/03 10:39:55;;;;;;;;;;;;;;;11.88;57.35;99976.63;5072508;28;19920;-78
2023/05/03 10:42:23;;;;;;;;;;;;;;;12.04;57.01;99977.84;5071122;28;20245;-79
2023/05/03 10:44:48;;;;;;;;;;;;;;;12.03;57.50;99971.66;5068920;28;20300;-79
2023/05/03 10:47:15;;;;;;;;;;;;;;;11.68;57.52;99986.00;5046674;28;19927;-78
2023/05/03 10:49:40;;;;;;;;;;;;;;;10.61;56.88;99983.19;5063848;28;20356;-78
2023/05/03 10:52:44;;;;;;;;;;;;;;;10.28;58.41;99984.31;5050833;28;19982;-78
2023/05/03 10:55:19;;;;;;;;;;;;;;;10.30;59.31;99984.91;5000530;28;19917;-78
2023/05/03 10:57:46;;;;;;;;;;;;;;;10.67;59.51;99984.97;5000579;28;19933;-78
2023/05/03 11:00:12;;;;;;;;;;;;;;;11.05;58.83;99980.25;5036448;28;19921;-78
2023/05/03 11:02:52;;;;;;;;;;;;;;;10.94;59.20;99976.44;5045606;28;19943;-78
2023/05/03 11:05:18;;;;;;;;;;;;;;;11.09;57.93;99976.06;5046683;28;19920;-79
2023/05/03 11:07:44;;;;;;;;;;;;;;;11.06;58.42;99982.66;5051893;28;19928;-78
2023/05/03 11:10:16;;;;;;;;;;;;;;;13.04;56.76;99982.00;5050176;28;19928;-79
2023/05/03 11:12:41;;;;;;;;;;;;;;;13.22;56.22;99975.72;5051773;28;19917;-78
2023/05/03 11:15:07;;;;;;;;;;;;;;;12.67;57.28;99977.97;5067486;28;19928;-78
2023/05/03 11:17:32;;;;;;;;;;;;;;;12.82;56.47;99972.16;5072703;28;19921;-78
2023/05/03 11:19:57;;;;;;;;;;;;;;;12.36;54.28;99973.78;5069115;28;19917;-78
2023/05/03 11:22:23;;;;;;;;;;;;;;;12.46;57.07;99968.69;5048291;28;20148;-78
2023/05/03 11:24:50;;;;;;;;;;;;;;;13.32;54.85;99962.53;5052312;28;19920;-78
2023/05/03 11:27:22;;;;;;;;;;;;;;;12.39;54.79;99962.63;5070029;28;19928;-78
2023/05/03 11:29:48;;;;;;;;;;;;;;;13.03;52.28;99963.50;5054679;28;19916;-78
2023/05/03 11:32:14;;;;;;;;;;;;;;;13.32;53.95;99955.25;5064275;28;19923;-78
2023/05/03 11:34:40;;;;;;;;;;;;;;;13.96;54.15;99948.66;5068204;28;19929;-79
2023/05/03 11:37:07;;;;;;;;;;;;;;;13.99;51.38;99947.34;5054965;28;19925;-79
2023/05/03 11:39:32;;;;;;;;;;;;;;;14.48;51.79;99940.38;5069204;28;21285;-79
2023/05/03 11:42:04;;;;;;;;;;;;;;;13.57;52.89;99948.75;5052005;28;20011;-79
2023/05/03 11:44:29;;;;;;;;;;;;;;;13.28;51.72;99945.28;5065772;28;20382;-79
2023/05/03 11:46:54;;;;;;;;;;;;;;;12.50;52.37;99942.25;5048078;28;19920;-78
2023/05/03 11:49:20;;;;;;;;;;;;;;;14.04;54.46;99939.38;5066401;28;19921;-79
2023/05/03 11:51:45;;;;;;;;;;;;;;;14.88;52.78;99941.72;5048402;28;21802;-78
2023/05/03 11:54:10;;;;;;;;;;;;;;;14.60;52.16;99928.44;5049388;28;19920;-79
2023/05/03 11:56:36;;;;;;;;;;;;;;;13.69;52.66;99930.75;5062019;28;19921;-78
2023/05/03 11:59:01;;;;;;;;;;;;;;;14.59;50.48;99937.56;5061980;28;19993;-78
2023/05/03 12:01:27;;;;;;;;;;;;;;;14.03;50.55;99935.06;5060987;28;19916;-79
2023/05/03 12:03:57;;;;;;;;;;;;;;;14.01;50.05;99931.81;5039811;28;19942;-78
2023/05/03 12:06:23;;;;;;;;;;;;;;;15.54;51.35;99932.56;5060653;28;19924;-79
2023/05/03 12:08:48;;;;;;;;;;;;;;;15.88;50.51;99929.66;5049457;28;19958;-79
2023/05/03 12:11:13;;;;;;;;;;;;;;;15.74;50.74;99940.84;5067451;28;19927;-80
2023/05/03 12:13:39;;;;;;;;;;;;;;;15.90;50.22;99927.50;5056324;28;19982;-79
2023/05/03 12:16:05;;;;;;;;;;;;;;;16.04;49.85;99924.13;5061032;28;19921;-79
2023/05/03 12:18:50;;;;;;;;;;;;;;;15.95;48.26;99920.28;5063601;28;19929;-79
2023/05/03 12:21:16;;;;;;;;;;;;;;;15.89;49.56;99915.09;5064644;28;19924;-79
2023/05/03 12:23:41;;;;;;;;;;;;;;;16.15;48.95;99925.00;5052434;28;19967;-79
2023/05/03 12:26:07;;;;;;;;;;;;;;;15.77;48.54;99916.09;5049386;28;19982;-79
2023/05/03 12:28:32;;;;;;;;;;;;;;;15.39;48.17;99920.78;5062495;28;19967;-79
2023/05/03 12:30:58;;;;;;;;;;;;;;;16.50;47.91;99911.81;5042711;28;20423;-80
2023/05/03 12:33:23;;;;;;;;;;;;;;;16.61;49.22;99912.66;5054980;28;19929;-79
2023/05/03 12:35:49;;;;;;;;;;;;;;;16.62;47.65;99904.31;5043684;28;19947;-79
2023/05/03 12:38:15;;;;;;;;;;;;;;;15.37;48.79;99907.59;5043016;28;19932;-79
2023/05/03 12:40:40;;;;;;;;;;;;;;;15.61;49.08;99902.75;5065244;28;19923;-79
2023/05/03 12:43:05;;;;;;;;;;;;;;;16.45;48.48;99893.69;5057498;28;20404;-79
2023/05/03 12:45:31;;;;;;;;;;;;;;;16.41;46.50;99900.69;5059529;28;19916;-79